createdAt,value
2022-09-17T00:01:08.510Z,45.38
2022-09-17T00:02:40.187Z,45.29
2022-09-17T00:04:11.900Z,45.29
2022-09-17T00:05:43.473Z,45.27
2022-09-17T00:07:15.866Z,45.30
2022-09-17T00:08:47.512Z,45.36
2022-09-17T00:10:19.950Z,45.28
2022-09-17T00:11:51.476Z,45.39
2022-09-17T00:13:23.398Z,45.39
2022-09-17T00:14:55.131Z,45.54
2022-09-17T00:16:27.988Z,45.46
2022-09-17T00:17:59.597Z,45.45
2022-09-17T00:19:31.097Z,45.33
2022-09-17T00:21:03.810Z,45.32
2022-09-17T00:22:35.323Z,45.13
2022-09-17T00:24:06.967Z,45.39
2022-09-17T00:25:39.428Z,45.42
2022-09-17T00:27:10.965Z,45.46
2022-09-17T00:28:45.540Z,45.46
2022-09-17T00:30:17.061Z,45.45
2022-09-17T00:31:48.790Z,45.19
2022-09-17T00:33:21.276Z,45.16
2022-09-17T00:34:53.127Z,45.16
2022-09-17T00:36:24.675Z,45.11
2022-09-17T00:37:56.158Z,45.00
2022-09-17T00:39:27.634Z,44.84
2022-09-17T00:40:59.370Z,44.84
2022-09-17T00:42:31.179Z,44.80
2022-09-17T00:44:23.036Z,44.95
2022-09-17T00:45:54.537Z,44.78
2022-09-17T00:47:26.211Z,44.65
2022-09-17T00:48:58.419Z,44.86
2022-09-17T00:50:31.558Z,44.70
2022-09-17T00:52:06.825Z,44.85
2022-09-17T00:53:40.846Z,44.53
2022-09-17T00:55:18.441Z,44.85
2022-09-17T00:56:50.297Z,44.64
2022-09-17T00:58:22.247Z,44.50
2022-09-17T00:59:53.998Z,44.66
2022-09-17T01:01:25.607Z,44.60
2022-09-17T01:02:57.440Z,44.74
2022-09-17T01:04:28.915Z,44.54
2022-09-17T01:06:05.032Z,44.67
2022-09-17T01:07:36.565Z,44.49
2022-09-17T01:16:49.350Z,44.37
2022-09-17T01:18:29.446Z,44.52
2022-09-17T01:20:13.560Z,44.50
2022-09-17T01:22:03.198Z,44.30
2022-09-17T01:23:34.774Z,44.21
2022-09-17T01:25:06.894Z,44.03
2022-09-17T01:26:55.004Z,44.35
2022-09-17T01:28:46.958Z,44.24
2022-09-17T01:30:28.260Z,44.36
2022-09-17T01:32:00.231Z,44.29
2022-09-17T01:33:34.543Z,44.13
2022-09-17T01:35:09.156Z,44.08
2022-09-17T01:36:59.443Z,44.30
2022-09-17T01:38:33.040Z,44.47
2022-09-17T01:40:04.878Z,44.52
2022-09-17T01:41:48.171Z,44.54
2022-09-17T01:43:36.977Z,44.45
2022-09-17T01:45:10.178Z,44.84
2022-09-17T01:46:49.586Z,44.64
2022-09-17T01:48:22.150Z,44.71
2022-09-17T01:49:55.251Z,44.82
2022-09-17T01:51:27.769Z,44.79
2022-09-17T01:52:59.654Z,44.71
2022-09-17T01:54:38.081Z,44.81
2022-09-17T01:56:13.751Z,44.83
2022-09-17T01:57:47.883Z,44.85
2022-09-17T01:59:23.323Z,44.76
2022-09-17T02:00:56.591Z,44.85
2022-09-17T02:02:31.197Z,44.97
2022-09-17T02:04:13.789Z,44.96
2022-09-17T02:05:53.458Z,44.91
2022-09-17T02:07:26.186Z,45.04
2022-09-17T02:08:58.582Z,45.07
2022-09-17T02:10:31.449Z,45.37
2022-09-17T02:12:04.245Z,45.40
2022-09-17T02:13:41.055Z,45.29
2022-09-17T02:15:18.050Z,45.17
2022-09-17T02:16:52.913Z,45.19
2022-09-17T02:18:26.400Z,45.31
2022-09-17T02:19:57.968Z,45.47
2022-09-17T02:21:35.409Z,45.63
2022-09-17T02:23:09.009Z,45.80
2022-09-17T02:24:49.180Z,45.93
2022-09-17T02:26:20.908Z,46.30
2022-09-17T02:28:03.580Z,46.57
2022-09-17T02:29:39.365Z,46.85
2022-09-17T02:31:12.099Z,46.90
2022-09-17T02:32:43.646Z,47.22
2022-09-17T02:34:15.228Z,47.54
2022-09-17T02:35:47.460Z,47.70
2022-09-17T02:37:22.081Z,47.96
2022-09-17T02:38:58.787Z,47.94
2022-09-17T02:40:31.724Z,48.09
2022-09-17T02:42:17.710Z,47.93
2022-09-17T02:43:56.469Z,48.24
2022-09-17T02:45:46.894Z,48.10
2022-09-17T02:47:18.430Z,48.15
2022-09-17T02:49:10.316Z,48.33
2022-09-17T02:51:02.158Z,48.49
2022-09-17T02:52:36.917Z,48.67
2022-09-17T02:54:28.778Z,48.99
2022-09-17T02:56:00.247Z,48.87
2022-09-17T02:57:38.271Z,49.21
2022-09-17T02:59:15.822Z,49.12
2022-09-17T03:00:47.638Z,49.31
2022-09-17T03:02:19.308Z,49.45
2022-09-17T03:03:51.580Z,49.47
2022-09-17T03:05:23.133Z,49.32
2022-09-17T03:06:54.846Z,49.44
2022-09-17T03:08:30.099Z,49.29
2022-09-17T03:10:01.601Z,49.49
2022-09-17T03:11:33.970Z,49.47
2022-09-17T03:13:05.877Z,49.40
2022-09-17T03:14:37.480Z,49.50
2022-09-17T03:16:09.644Z,49.65
2022-09-17T03:17:41.368Z,49.50
2022-09-17T03:19:13.448Z,49.56
2022-09-17T03:20:46.578Z,49.42
2022-09-17T03:22:18.532Z,49.25
2022-09-17T03:23:50.082Z,49.06
2022-09-17T03:25:21.803Z,49.04
2022-09-17T03:26:53.364Z,48.86
2022-09-17T03:28:26.625Z,48.83
2022-09-17T03:29:58.851Z,49.12
2022-09-17T03:31:30.628Z,49.33
2022-09-17T03:33:02.145Z,49.33
2022-09-17T03:34:33.655Z,49.26
2022-09-17T03:36:05.341Z,49.21
2022-09-17T03:37:37.041Z,49.27
2022-09-17T03:39:08.863Z,49.37
2022-09-17T03:40:40.745Z,49.41
2022-09-17T03:42:12.678Z,49.32
2022-09-17T03:43:44.194Z,49.23
2022-09-17T03:45:15.825Z,49.14
2022-09-17T03:46:47.655Z,49.18
2022-09-17T03:48:19.441Z,48.99
2022-09-17T03:49:52.482Z,49.20
2022-09-17T03:51:24.619Z,49.13
2022-09-17T03:52:56.319Z,49.09
2022-09-17T03:54:27.898Z,49.08
2022-09-17T03:56:00.195Z,49.05
2022-09-17T03:57:31.711Z,49.00
2022-09-17T03:59:03.266Z,49.04
2022-09-17T04:00:37.191Z,48.98
2022-09-17T04:02:09.122Z,49.16
2022-09-17T04:03:40.783Z,49.16
2022-09-17T04:05:12.602Z,49.22
2022-09-17T04:06:44.130Z,49.10
2022-09-17T04:08:15.712Z,49.34
2022-09-17T04:09:47.218Z,49.50
2022-09-17T04:11:18.739Z,49.47
2022-09-17T04:12:50.283Z,49.64
2022-09-17T04:14:21.822Z,49.67
2022-09-17T04:15:53.518Z,49.67
2022-09-17T04:17:25.168Z,49.69
2022-09-17T04:18:56.722Z,49.75
2022-09-17T04:20:28.421Z,49.88
2022-09-17T04:22:00.382Z,49.64
2022-09-17T04:23:32.022Z,49.56
2022-09-17T04:25:03.643Z,49.63
2022-09-17T04:26:35.223Z,49.59
2022-09-17T04:28:06.744Z,49.43
2022-09-17T04:29:38.289Z,49.37
2022-09-17T04:31:09.899Z,49.20
2022-09-17T04:32:41.485Z,49.21
2022-09-17T04:34:13.150Z,49.04
2022-09-17T04:35:45.735Z,49.17
2022-09-17T04:37:17.612Z,49.38
2022-09-17T04:38:49.397Z,49.57
2022-09-17T04:40:21.400Z,49.91
2022-09-17T04:41:53.116Z,49.86
2022-09-17T04:43:25.226Z,49.99
2022-09-17T04:44:58.306Z,49.83
2022-09-17T04:46:30.320Z,50.10
2022-09-17T04:48:02.281Z,50.26
2022-09-17T04:49:35.154Z,50.51
2022-09-17T04:51:06.922Z,50.63
2022-09-17T04:52:42.416Z,50.76
2022-09-17T04:54:14.887Z,50.74
2022-09-17T04:55:46.519Z,50.93
2022-09-17T04:57:18.215Z,50.92
2022-09-17T04:58:49.742Z,51.12
2022-09-17T05:00:23.342Z,51.25
2022-09-17T05:01:55.441Z,51.09
2022-09-17T05:03:28.044Z,51.12
2022-09-17T05:05:00.130Z,51.13
2022-09-17T05:06:31.844Z,51.28
2022-09-17T05:08:03.945Z,51.38
2022-09-17T05:09:35.840Z,51.69
2022-09-17T05:11:07.628Z,51.49
2022-09-17T05:12:39.550Z,51.54
2022-09-17T05:14:11.173Z,51.62
2022-09-17T05:15:42.803Z,51.64
2022-09-17T05:17:14.771Z,51.61
2022-09-17T05:18:46.606Z,51.95
2022-09-17T05:20:18.450Z,51.67
2022-09-17T05:21:50.392Z,51.82
2022-09-17T05:23:22.209Z,51.93
2022-09-17T05:24:54.000Z,52.19
2022-09-17T05:26:25.867Z,52.34
2022-09-17T05:27:57.569Z,52.41
2022-09-17T05:29:31.326Z,52.62
2022-09-17T05:31:02.964Z,52.57
2022-09-17T05:32:35.188Z,52.99
2022-09-17T05:34:07.773Z,52.88
2022-09-17T05:35:39.759Z,52.92
2022-09-17T05:37:11.712Z,52.99
2022-09-17T05:38:43.365Z,52.99
2022-09-17T05:40:15.717Z,52.92
2022-09-17T05:41:47.419Z,53.20
2022-09-17T05:43:19.055Z,53.28
2022-09-17T05:44:51.065Z,53.18
2022-09-17T05:46:24.768Z,53.31
2022-09-17T05:47:56.863Z,53.26
2022-09-17T05:49:28.416Z,53.19
2022-09-17T05:51:00.242Z,53.22
2022-09-17T05:52:31.825Z,53.30
2022-09-17T05:54:03.505Z,53.22
2022-09-17T05:55:38.249Z,53.24
2022-09-17T05:57:09.866Z,53.23
2022-09-17T05:58:41.590Z,53.31
2022-09-17T06:00:13.458Z,53.14
2022-09-17T06:01:45.296Z,53.23
2022-09-17T06:03:17.879Z,53.40
2022-09-17T06:04:49.953Z,53.52
2022-09-17T06:06:21.766Z,53.35
2022-09-17T06:07:53.414Z,53.14
2022-09-17T06:09:25.043Z,53.33
2022-09-17T06:11:01.550Z,53.29
2022-09-17T06:12:35.849Z,53.47
2022-09-17T06:14:07.578Z,53.62
2022-09-17T06:15:39.311Z,53.58
2022-09-17T06:17:11.603Z,53.76
2022-09-17T06:18:43.302Z,53.70
2022-09-17T06:20:16.476Z,53.70
2022-09-17T06:21:48.238Z,53.71
2022-09-17T06:23:19.963Z,53.68
2022-09-17T06:24:51.760Z,53.81
2022-09-17T06:26:23.350Z,53.78
2022-09-17T06:27:54.981Z,53.81
2022-09-17T06:29:27.114Z,53.92
2022-09-17T06:31:02.217Z,53.81
2022-09-17T06:32:34.055Z,54.22
2022-09-17T06:34:05.899Z,54.19
2022-09-17T06:35:37.615Z,54.17
2022-09-17T06:37:11.854Z,54.09
2022-09-17T06:38:43.487Z,54.08
2022-09-17T06:40:16.353Z,54.13
2022-09-17T06:41:48.178Z,54.05
2022-09-17T06:43:19.984Z,54.01
2022-09-17T06:44:54.578Z,54.08
2022-09-17T06:46:26.449Z,53.78
2022-09-17T06:47:58.272Z,53.93
2022-09-17T06:49:31.681Z,54.15
2022-09-17T06:51:07.147Z,54.07
2022-09-17T06:52:39.122Z,54.19
2022-09-17T06:54:10.742Z,54.06
2022-09-17T06:55:42.421Z,54.12
2022-09-17T06:57:14.087Z,54.13
2022-09-17T06:58:45.853Z,53.86
2022-09-17T07:00:17.508Z,54.08
2022-09-17T07:01:49.469Z,54.28
2022-09-17T07:03:23.330Z,53.89
2022-09-17T07:04:55.351Z,53.96
2022-09-17T07:06:27.266Z,54.11
2022-09-17T07:09:30.917Z,53.86
2022-09-17T07:11:02.552Z,53.77
2022-09-17T07:12:34.198Z,53.29
2022-09-17T07:14:07.089Z,53.29
2022-09-17T07:15:38.667Z,53.20
2022-09-17T07:17:10.684Z,52.93
2022-09-17T07:18:42.313Z,52.87
2022-09-17T07:20:13.919Z,52.82
2022-09-17T07:21:45.516Z,52.94
2022-09-17T07:23:17.111Z,52.43
2022-09-17T07:24:48.907Z,52.37
2022-09-17T07:26:20.430Z,52.15
2022-09-17T07:27:51.989Z,52.05
2022-09-17T07:29:26.654Z,51.67
2022-09-17T07:30:58.399Z,51.43
2022-09-17T07:32:30.846Z,51.28
2022-09-17T07:34:02.770Z,51.09
2022-09-17T07:35:34.317Z,50.86
2022-09-17T07:37:06.129Z,50.63
2022-09-17T07:38:38.943Z,50.46
2022-09-17T07:40:11.103Z,50.27
2022-09-17T07:41:43.095Z,50.14
2022-09-17T07:43:15.759Z,50.25
2022-09-17T07:44:47.409Z,49.87
2022-09-17T07:46:19.631Z,49.78
2022-09-17T07:47:51.696Z,49.47
2022-09-17T07:49:23.599Z,49.43
2022-09-17T07:50:56.018Z,49.62
2022-09-17T07:52:28.407Z,49.64
2022-09-17T07:54:00.585Z,49.57
2022-09-17T07:55:32.843Z,49.22
2022-09-17T07:57:04.875Z,49.12
2022-09-17T07:58:38.190Z,49.18
2022-09-17T08:00:10.332Z,49.00
2022-09-17T08:01:43.357Z,48.83
2022-09-17T08:03:15.147Z,48.41
2022-09-17T08:04:46.710Z,48.53
2022-09-17T08:06:22.016Z,48.59
2022-09-17T08:07:54.434Z,48.32
2022-09-17T08:09:25.999Z,47.82
2022-09-17T08:11:00.439Z,48.21
2022-09-17T08:12:31.961Z,47.98
2022-09-17T08:14:04.350Z,48.15
2022-09-17T08:15:36.260Z,48.03
2022-09-17T08:17:08.607Z,47.65
2022-09-17T08:18:40.200Z,47.96
2022-09-17T08:20:12.483Z,48.06
2022-09-17T08:21:44.274Z,47.81
2022-09-17T08:23:16.360Z,47.58
2022-09-17T08:24:48.581Z,47.62
2022-09-17T08:26:22.916Z,47.47
2022-09-17T08:27:56.079Z,47.23
2022-09-17T08:29:30.072Z,47.33
2022-09-17T08:31:04.964Z,47.33
2022-09-17T08:32:36.557Z,46.95
2022-09-17T08:34:09.401Z,46.89
2022-09-17T08:35:41.006Z,46.90
2022-09-17T08:37:12.667Z,46.78
2022-09-17T08:38:44.455Z,46.48
2022-09-17T08:40:21.159Z,46.77
2022-09-17T08:41:55.788Z,46.69
2022-09-17T08:43:27.540Z,46.29
2022-09-17T08:45:00.777Z,46.32
2022-09-17T08:46:33.638Z,46.39
2022-09-17T08:48:05.427Z,46.50
2022-09-17T08:49:40.576Z,46.27
2022-09-17T08:51:18.152Z,46.45
2022-09-17T08:53:03.102Z,46.57
2022-09-17T08:54:50.598Z,46.37
2022-09-17T08:56:22.275Z,46.33
2022-09-17T08:57:53.946Z,46.56
2022-09-17T08:59:46.275Z,46.52
2022-09-17T09:01:21.351Z,46.56
2022-09-17T09:02:56.400Z,46.93
2022-09-17T09:04:31.732Z,46.94
2022-09-17T09:06:07.247Z,47.02
2022-09-17T09:07:53.078Z,47.08
2022-09-17T09:09:25.991Z,47.09
2022-09-17T09:10:58.573Z,47.43
2022-09-17T09:12:31.985Z,47.08
2022-09-17T09:14:06.691Z,47.34
2022-09-17T09:15:41.551Z,47.33
2022-09-17T09:17:13.669Z,47.68
2022-09-17T09:18:45.387Z,48.00
2022-09-17T09:20:18.014Z,47.93
2022-09-17T09:22:08.675Z,48.27
2022-09-17T09:23:54.628Z,48.46
2022-09-17T09:25:29.644Z,48.86
2022-09-17T09:27:04.193Z,48.95
2022-09-17T09:28:48.998Z,48.92
2022-09-17T09:30:23.856Z,48.45
2022-09-17T09:32:20.497Z,48.77
2022-09-17T09:41:37.784Z,48.88
2022-09-17T09:43:12.627Z,49.27
2022-09-17T09:44:44.436Z,49.14
2022-09-17T09:46:16.220Z,49.18
2022-09-17T09:47:51.490Z,49.35
2022-09-17T09:49:42.632Z,49.65
2022-09-17T09:51:36.958Z,49.62
2022-09-17T09:53:40.938Z,49.90
2022-09-17T09:55:38.700Z,49.97
2022-09-17T09:57:13.691Z,50.36
2022-09-17T09:58:45.411Z,50.49
2022-09-17T10:00:26.999Z,50.55
2022-09-17T10:01:58.741Z,50.85
2022-09-17T10:03:32.476Z,51.00
2022-09-17T10:05:10.114Z,51.15
2022-09-17T10:06:41.808Z,51.33
2022-09-17T10:08:13.913Z,51.51
2022-09-17T10:09:45.803Z,51.87
2022-09-17T10:11:21.680Z,51.98
2022-09-17T10:13:05.189Z,52.25
2022-09-17T10:14:37.353Z,52.54
2022-09-17T10:16:19.017Z,52.74
2022-09-17T10:17:51.310Z,53.04
2022-09-17T10:19:25.694Z,53.20
2022-09-17T10:21:00.467Z,53.15
2022-09-17T10:22:32.984Z,53.30
2022-09-17T10:24:05.415Z,53.41
2022-09-17T10:25:41.654Z,53.53
2022-09-17T10:27:17.667Z,53.66
2022-09-17T10:28:53.251Z,53.90
2022-09-17T10:30:26.619Z,53.79
2022-09-17T10:31:58.778Z,53.98
2022-09-17T10:33:31.424Z,53.94
2022-09-17T10:35:06.155Z,53.69
2022-09-17T10:36:42.341Z,53.85
2022-09-17T10:38:32.507Z,53.92
2022-09-17T10:40:16.001Z,53.90
2022-09-17T10:42:04.406Z,54.13
2022-09-17T10:43:36.312Z,54.19
2022-09-17T10:45:16.662Z,54.14
2022-09-17T10:46:54.290Z,54.21
2022-09-17T10:48:29.090Z,54.34
2022-09-17T10:50:08.383Z,54.42
2022-09-17T10:51:40.290Z,54.45
2022-09-17T10:53:15.541Z,54.19
2022-09-17T10:54:56.363Z,54.01
2022-09-17T10:56:36.408Z,53.97
2022-09-17T10:58:08.032Z,53.78
2022-09-17T10:59:59.234Z,53.89
2022-09-17T11:01:38.725Z,54.00
2022-09-17T11:03:32.399Z,54.06
2022-09-17T11:05:04.194Z,54.14
2022-09-17T11:06:38.942Z,54.10
2022-09-17T11:08:13.037Z,54.12
2022-09-17T11:10:00.018Z,53.93
2022-09-17T11:11:50.344Z,53.98
2022-09-17T11:13:24.995Z,53.98
2022-09-17T11:15:02.047Z,54.09
2022-09-17T11:16:36.749Z,54.23
2022-09-17T11:18:24.734Z,54.42
2022-09-17T11:20:02.680Z,54.46
2022-09-17T11:21:34.393Z,54.40
2022-09-17T11:23:06.049Z,54.37
2022-09-17T11:24:49.031Z,54.39
2022-09-17T11:26:39.307Z,54.29
2022-09-17T11:28:13.949Z,54.27
2022-09-17T11:29:45.536Z,54.27
2022-09-17T11:31:35.884Z,54.35
2022-09-17T11:33:11.643Z,54.24
2022-09-17T11:34:45.975Z,54.39
2022-09-17T11:36:24.784Z,54.37
2022-09-17T11:38:02.420Z,54.46
2022-09-17T11:39:36.844Z,54.28
2022-09-17T11:41:10.768Z,54.39
2022-09-17T11:42:47.961Z,54.64
2022-09-17T11:44:25.298Z,54.43
2022-09-17T11:45:57.000Z,54.46
2022-09-17T11:47:35.317Z,54.55
2022-09-17T11:49:12.909Z,54.49
2022-09-17T11:50:56.824Z,54.58
2022-09-17T11:52:32.195Z,54.59
2022-09-17T11:54:22.498Z,54.76
2022-09-17T11:55:59.783Z,54.79
2022-09-17T11:57:35.440Z,54.87
2022-09-17T11:59:15.910Z,54.97
2022-09-17T12:00:50.459Z,55.10
2022-09-17T12:02:27.114Z,55.28
2022-09-17T12:03:59.680Z,55.12
2022-09-17T12:05:31.405Z,55.11
2022-09-17T12:07:11.331Z,55.04
2022-09-17T12:08:46.242Z,54.98
2022-09-17T12:10:32.851Z,54.86
2022-09-17T12:12:06.753Z,54.84
2022-09-17T12:13:45.970Z,54.79
2022-09-17T12:15:25.641Z,55.00
2022-09-17T12:17:00.644Z,54.73
2022-09-17T12:18:51.432Z,54.79
2022-09-17T12:20:25.534Z,54.56
2022-09-17T12:21:58.655Z,54.65
2022-09-17T12:23:39.779Z,54.57
2022-09-17T12:25:14.016Z,54.66
2022-09-17T12:26:48.859Z,54.75
2022-09-17T12:28:22.034Z,54.64
2022-09-17T12:30:01.431Z,54.73
2022-09-17T12:31:46.241Z,54.58
2022-09-17T12:33:46.122Z,54.58
2022-09-17T12:35:52.800Z,54.90
2022-09-17T12:37:27.943Z,54.86
2022-09-17T12:39:03.427Z,55.06
2022-09-17T12:40:44.391Z,55.15
2022-09-17T12:42:20.177Z,55.06
2022-09-17T12:43:57.825Z,55.19
2022-09-17T12:45:49.940Z,55.36
2022-09-17T12:47:40.726Z,55.38
2022-09-17T12:49:21.453Z,55.55
2022-09-17T12:51:12.374Z,55.66
2022-09-17T12:52:52.968Z,55.65
2022-09-17T12:54:30.851Z,55.54
2022-09-17T12:56:04.161Z,55.62
2022-09-17T12:57:57.999Z,55.52
2022-09-17T12:59:30.689Z,55.56
2022-09-17T13:01:04.682Z,55.69
2022-09-17T13:02:37.259Z,55.58
2022-09-17T13:04:16.404Z,55.49
2022-09-17T13:06:11.269Z,55.49
2022-09-17T13:08:01.879Z,55.37
2022-09-17T13:09:51.933Z,55.23
2022-09-17T13:11:24.452Z,55.35
2022-09-17T13:13:07.417Z,55.59
2022-09-17T13:14:48.684Z,55.49
2022-09-17T13:16:24.741Z,55.36
2022-09-17T13:18:23.014Z,55.32
2022-09-17T13:20:02.499Z,55.35
2022-09-17T13:21:34.436Z,55.37
2022-09-17T13:23:06.612Z,55.47
2022-09-17T13:24:38.864Z,55.51
2022-09-17T13:26:20.252Z,55.44
2022-09-17T13:27:55.400Z,55.44
2022-09-17T13:29:47.710Z,55.61
2022-09-17T13:31:22.467Z,55.58
2022-09-17T13:32:57.906Z,55.46
2022-09-17T13:34:32.309Z,55.55
2022-09-17T13:36:05.808Z,55.29
2022-09-17T13:37:41.692Z,55.36
2022-09-17T13:39:34.015Z,55.19
2022-09-17T13:41:18.655Z,55.20
2022-09-17T13:43:09.546Z,55.37
2022-09-17T13:45:19.321Z,55.85
2022-09-17T13:46:53.216Z,56.11
2022-09-17T13:48:27.335Z,55.90
2022-09-17T13:50:00.092Z,56.12
2022-09-17T13:51:35.190Z,56.04
2022-09-17T13:53:14.843Z,55.98
2022-09-17T13:54:46.636Z,55.97
2022-09-17T13:56:32.172Z,56.18
2022-09-17T13:58:04.847Z,56.08
2022-09-17T13:59:39.154Z,56.13
2022-09-17T14:01:13.774Z,55.97
2022-09-17T14:02:50.350Z,56.14
2022-09-17T14:04:42.075Z,56.11
2022-09-17T14:06:15.187Z,55.99
2022-09-17T14:07:47.795Z,56.05
2022-09-17T14:09:40.003Z,56.11
2022-09-17T14:11:33.810Z,56.46
2022-09-17T14:13:24.966Z,56.35
2022-09-17T14:14:56.996Z,56.39
2022-09-17T14:16:28.681Z,56.42
2022-09-17T14:18:01.244Z,56.63
2022-09-17T14:19:49.033Z,56.75
2022-09-17T14:21:27.473Z,56.63
2022-09-17T14:23:00.402Z,56.64
2022-09-17T14:24:47.546Z,56.72
2022-09-17T14:26:25.397Z,56.73
2022-09-17T14:28:05.156Z,56.66
2022-09-17T14:29:56.289Z,56.62
2022-09-17T14:31:32.715Z,56.58
2022-09-17T14:33:11.378Z,56.75
2022-09-17T14:34:43.922Z,56.64
2022-09-17T14:36:17.197Z,56.67
2022-09-17T14:38:07.306Z,56.84
2022-09-17T14:39:41.832Z,56.69
2022-09-17T14:41:14.182Z,56.94
2022-09-17T14:42:46.780Z,56.95
2022-09-17T14:44:19.809Z,56.95
2022-09-17T14:45:52.443Z,57.07
2022-09-17T14:47:24.028Z,56.94
2022-09-17T14:48:56.696Z,57.11
2022-09-17T14:50:29.480Z,57.35
2022-09-17T14:52:05.108Z,57.27
2022-09-17T14:53:36.775Z,57.25
2022-09-17T14:55:20.730Z,57.08
2022-09-17T14:56:53.519Z,57.33
2022-09-17T14:58:26.302Z,57.46
2022-09-17T14:59:57.905Z,57.62
2022-09-17T15:01:31.642Z,57.50
2022-09-17T15:03:03.370Z,57.62
2022-09-17T15:04:35.046Z,57.55
2022-09-17T15:06:13.348Z,57.51
2022-09-17T15:07:45.519Z,57.49
2022-09-17T15:09:17.736Z,57.46
2022-09-17T15:10:52.618Z,57.50
2022-09-17T15:12:25.379Z,57.52
2022-09-17T15:13:57.704Z,57.50
2022-09-17T15:15:29.425Z,57.36
2022-09-17T15:17:02.112Z,57.40
2022-09-17T15:18:38.658Z,57.33
2022-09-17T15:20:11.542Z,57.46
2022-09-17T15:21:43.899Z,57.35
2022-09-17T15:23:17.697Z,57.34
2022-09-17T15:24:50.562Z,57.20
2022-09-17T15:26:23.540Z,57.02
2022-09-17T15:27:56.313Z,56.78
2022-09-17T15:29:28.809Z,56.69
2022-09-17T15:31:00.535Z,56.94
2022-09-17T15:32:35.009Z,56.97
2022-09-17T15:34:12.969Z,57.45
2022-09-17T15:35:45.060Z,57.36
2022-09-17T15:37:20.852Z,57.06
2022-09-17T15:38:53.807Z,57.38
2022-09-17T15:40:32.540Z,57.28
2022-09-17T15:42:04.995Z,57.58
2022-09-17T15:43:38.159Z,57.47
2022-09-17T15:45:23.552Z,57.48
2022-09-17T15:46:57.852Z,57.74
2022-09-17T15:48:37.615Z,57.69
2022-09-17T15:50:16.787Z,58.05
2022-09-17T15:51:50.436Z,57.86
2022-09-17T15:53:23.508Z,57.75
2022-09-17T15:54:55.248Z,57.73
2022-09-17T15:56:28.443Z,57.73
2022-09-17T15:58:00.228Z,57.87
2022-09-17T15:59:32.148Z,57.82
2022-09-17T16:01:15.749Z,57.40
2022-09-17T16:02:47.590Z,57.53
2022-09-17T16:04:22.518Z,57.49
2022-09-17T16:05:56.901Z,57.58
2022-09-17T16:07:30.423Z,57.39
2022-09-17T16:09:02.915Z,57.32
2022-09-17T16:10:34.819Z,57.39
2022-09-17T16:12:08.057Z,57.11
2022-09-17T16:13:40.218Z,57.17
2022-09-17T16:15:15.083Z,56.91
2022-09-17T16:16:49.847Z,57.32
2022-09-17T16:18:21.704Z,57.28
2022-09-17T16:19:56.110Z,57.37
2022-09-17T16:21:28.596Z,57.44
2022-09-17T16:23:01.031Z,57.39
2022-09-17T16:24:34.898Z,57.46
2022-09-17T16:26:07.506Z,57.28
2022-09-17T16:27:49.409Z,57.18
2022-09-17T16:29:22.287Z,56.88
2022-09-17T16:31:17.244Z,56.99
2022-09-17T16:32:49.102Z,56.99
2022-09-17T16:34:20.843Z,57.15
2022-09-17T16:35:52.676Z,57.09
2022-09-17T16:37:24.433Z,57.21
2022-09-17T16:38:57.133Z,57.00
2022-09-17T16:40:29.131Z,57.11
2022-09-17T16:42:00.998Z,56.80
2022-09-17T16:43:34.024Z,56.83
2022-09-17T16:45:07.068Z,56.70
2022-09-17T16:46:38.980Z,56.87
2022-09-17T16:48:12.174Z,56.77
2022-09-17T16:49:44.384Z,56.82
2022-09-17T16:51:16.605Z,57.07
2022-09-17T16:52:48.714Z,57.25
2022-09-17T16:54:20.683Z,57.28
2022-09-17T16:55:52.407Z,57.36
2022-09-17T16:57:27.648Z,57.22
2022-09-17T16:58:59.307Z,57.51
2022-09-17T17:00:44.632Z,57.29
2022-09-17T17:02:27.844Z,57.33
2022-09-17T17:04:11.074Z,57.15
2022-09-17T17:05:44.030Z,56.80
2022-09-17T17:09:06.766Z,57.12
2022-09-17T17:10:52.354Z,56.98
2022-09-17T17:12:28.287Z,57.20
2022-09-17T17:14:08.624Z,57.11
2022-09-17T17:16:02.632Z,57.36
2022-09-17T17:17:39.327Z,57.40
2022-09-17T17:19:13.552Z,57.44
2022-09-17T17:20:45.501Z,57.40
2022-09-17T17:22:17.446Z,57.40
2022-09-17T17:23:52.287Z,57.40
2022-09-17T17:25:26.513Z,57.24
2022-09-17T17:26:58.206Z,57.10
2022-09-17T17:28:38.229Z,57.13
2022-09-17T17:30:10.498Z,56.84
2022-09-17T17:31:42.351Z,56.93
2022-09-17T17:33:14.109Z,56.99
2022-09-17T17:34:45.950Z,56.94
2022-09-17T17:36:20.463Z,57.00
2022-09-17T17:37:58.071Z,57.03
2022-09-17T17:39:30.245Z,57.25
2022-09-17T17:41:03.074Z,57.21
2022-09-17T17:42:38.545Z,56.79
2022-09-17T17:44:12.892Z,56.80
2022-09-17T17:45:49.558Z,56.77
2022-09-17T17:47:21.398Z,57.15
2022-09-17T17:48:53.500Z,56.76
2022-09-17T17:50:25.575Z,56.75
2022-09-17T17:51:57.421Z,56.97
2022-09-17T17:53:29.667Z,56.65
2022-09-17T17:55:01.414Z,56.46
2022-09-17T17:56:33.685Z,56.53
2022-09-17T17:58:05.574Z,56.73
2022-09-17T17:59:39.202Z,56.52
2022-09-17T18:01:15.643Z,56.29
2022-09-17T18:02:48.033Z,56.54
2022-09-17T18:04:19.958Z,56.34
2022-09-17T18:05:56.722Z,56.61
2022-09-17T18:07:30.978Z,56.39
2022-09-17T18:09:03.638Z,56.36
2022-09-17T18:10:35.356Z,56.53
2022-09-17T18:12:07.486Z,56.39
2022-09-17T18:13:39.481Z,56.29
2022-09-17T18:15:11.879Z,56.13
2022-09-17T18:16:44.450Z,56.27
2022-09-17T18:18:16.514Z,56.10
2022-09-17T18:19:49.418Z,56.15
2022-09-17T18:21:22.354Z,56.43
2022-09-17T18:22:54.565Z,56.27
2022-09-17T18:24:26.691Z,56.32
2022-09-17T18:25:59.156Z,56.33
2022-09-17T18:27:31.583Z,56.60
2022-09-17T18:29:07.798Z,56.55
2022-09-17T18:30:41.253Z,56.56
2022-09-17T18:32:13.307Z,56.56
2022-09-17T18:33:45.314Z,56.30
2022-09-17T18:35:20.169Z,56.25
2022-09-17T18:36:52.552Z,56.45
2022-09-17T18:38:24.878Z,56.30
2022-09-17T18:39:58.805Z,56.50
2022-09-17T18:41:31.994Z,56.52
2022-09-17T18:43:04.380Z,56.63
2022-09-17T18:44:36.682Z,56.82
2022-09-17T18:46:09.187Z,56.79
2022-09-17T18:47:40.887Z,56.58
2022-09-17T18:49:12.622Z,57.00
2022-09-17T18:50:45.097Z,56.86
2022-09-17T18:52:17.206Z,56.76
2022-09-17T18:53:51.629Z,56.81
2022-09-17T18:55:24.173Z,56.92
2022-09-17T18:56:56.386Z,56.84
2022-09-17T18:58:28.058Z,56.85
2022-09-17T19:00:00.306Z,56.73
2022-09-17T19:01:32.938Z,56.58
2022-09-17T19:03:04.737Z,56.62
2022-09-17T19:04:36.907Z,56.51
2022-09-17T19:06:11.644Z,56.47
2022-09-17T19:07:44.593Z,56.66
2022-09-17T19:09:17.197Z,56.79
2022-09-17T19:10:52.653Z,56.81
2022-09-17T19:12:24.494Z,56.72
2022-09-17T19:13:58.982Z,56.72
2022-09-17T19:15:34.482Z,56.82
2022-09-17T19:17:06.413Z,56.93
2022-09-17T19:18:41.860Z,57.01
2022-09-17T19:20:14.921Z,56.76
2022-09-17T19:21:47.146Z,56.80
2022-09-17T19:23:22.730Z,56.94
2022-09-17T19:24:54.445Z,56.92
2022-09-17T19:26:26.794Z,56.83
2022-09-17T19:27:59.932Z,57.02
2022-09-17T19:29:31.920Z,57.03
2022-09-17T19:31:05.964Z,56.81
2022-09-17T19:32:42.454Z,57.04
2022-09-17T19:34:15.228Z,56.99
2022-09-17T19:35:47.487Z,57.04
2022-09-17T19:37:19.548Z,56.93
2022-09-17T19:38:51.949Z,56.84
2022-09-17T19:40:23.722Z,56.89
2022-09-17T19:42:00.016Z,57.04
2022-09-17T19:43:32.849Z,57.14
2022-09-17T19:45:06.965Z,57.03
2022-09-17T19:46:38.982Z,57.24
2022-09-17T19:48:10.796Z,57.05
2022-09-17T19:49:43.939Z,57.15
2022-09-17T19:51:15.928Z,57.13
2022-09-17T19:52:47.703Z,57.28
2022-09-17T19:54:19.495Z,57.19
2022-09-17T19:55:51.366Z,57.34
2022-09-17T19:57:23.141Z,57.16
2022-09-17T19:58:54.896Z,57.28
2022-09-17T20:00:26.918Z,57.35
2022-09-17T20:01:58.702Z,57.17
2022-09-17T20:03:30.454Z,57.39
2022-09-17T20:05:02.385Z,57.33
2022-09-17T20:06:36.212Z,57.16
2022-09-17T20:08:08.259Z,57.18
2022-09-17T20:09:39.806Z,57.50
2022-09-17T20:11:11.617Z,57.41
2022-09-17T20:12:43.262Z,57.49
2022-09-17T20:14:15.257Z,57.15
2022-09-17T20:15:47.372Z,57.35
2022-09-17T20:17:19.099Z,57.44
2022-09-17T20:18:51.146Z,57.27
2022-09-17T20:20:28.368Z,57.18
2022-09-17T20:22:00.495Z,57.45
2022-09-17T20:23:32.110Z,57.55
2022-09-17T20:25:04.087Z,57.59
2022-09-17T20:26:35.683Z,57.60
2022-09-17T20:28:07.296Z,57.66
2022-09-17T20:29:38.855Z,57.67
2022-09-17T20:31:14.364Z,57.49
2022-09-17T20:32:46.478Z,57.49
2022-09-17T20:34:18.233Z,57.63
2022-09-17T20:35:50.019Z,57.57
2022-09-17T20:37:47.093Z,57.57
2022-09-17T20:39:18.215Z,57.70
2022-09-17T20:40:53.022Z,57.62
2022-09-17T20:42:24.670Z,57.62